createdAt,value
2019-01-24T00:09:41.748Z,74.47
2019-01-24T00:22:42.770Z,75.43
2019-01-24T00:25:02.561Z,69.20
2019-01-24T00:27:07.085Z,72.10
2019-01-24T00:37:47.489Z,59.60
2019-01-24T00:45:17.462Z,69.13
2019-01-24T00:47:34.335Z,61.50
2019-01-24T00:57:08.208Z,64.90
2019-01-24T01:04:54.801Z,61.00
2019-01-24T01:29:21.866Z,54.45
2019-01-24T01:37:26.386Z,152.10
2019-01-24T01:39:49.954Z,87.73
2019-01-24T01:45:40.609Z,65.57
2019-01-24T01:55:38.645Z,58.23
2019-01-24T02:11:29.405Z,58.40
2019-01-24T02:26:06.910Z,54.23
2019-01-24T02:28:12.159Z,50.50
2019-01-24T02:48:45.666Z,53.20
2019-01-24T02:51:21.496Z,50.97
2019-01-24T02:53:37.564Z,51.57
2019-01-24T02:55:42.062Z,45.90
2019-01-24T02:58:05.388Z,50.07
2019-01-24T03:54:56.174Z,48.03
2019-01-24T03:57:00.778Z,44.77
2019-01-24T03:59:06.717Z,48.47
2019-01-24T04:01:11.807Z,45.07
2019-01-24T04:03:16.278Z,43.47
2019-01-24T04:05:20.724Z,44.90
2019-01-24T04:07:25.321Z,48.23
2019-01-24T04:16:05.177Z,46.67
2019-01-24T04:34:50.472Z,40.93
2019-01-24T04:37:10.315Z,40.83
2019-01-24T04:42:36.994Z,43.63
2019-01-24T04:44:41.300Z,40.63
2019-01-24T04:55:10.714Z,41.87
2019-01-24T05:20:35.706Z,54.93
2019-01-24T06:06:19.751Z,41.03
2019-01-24T06:08:45.136Z,43.80
2019-01-24T06:10:49.866Z,40.90
2019-01-24T06:20:39.329Z,44.00
2019-01-24T06:22:46.182Z,42.10
2019-01-24T06:24:51.081Z,40.20
2019-01-24T06:26:55.619Z,44.60
2019-01-24T06:29:03.063Z,40.67
2019-01-24T06:31:12.513Z,44.23
2019-01-24T06:33:17.300Z,43.07
2019-01-24T06:35:21.851Z,42.20
2019-01-24T06:37:25.978Z,40.70
2019-01-24T06:39:30.388Z,44.13
2019-01-24T06:41:35.016Z,45.30
2019-01-24T06:43:39.685Z,44.37
2019-01-24T06:45:43.896Z,79.80
2019-01-24T06:47:48.618Z,547.87
2019-01-24T06:49:53.733Z,546.80
2019-01-24T06:52:02.972Z,862.73
2019-01-24T06:54:09.001Z,577.23
2019-01-24T06:56:17.919Z,952.47
2019-01-24T06:58:23.487Z,610.97
2019-01-24T07:00:28.551Z,318.97
2019-01-24T07:02:32.962Z,189.60
2019-01-24T07:14:06.343Z,61.60
2019-01-24T07:16:22.381Z,59.00
2019-01-24T07:18:29.718Z,54.13
2019-01-24T07:20:34.802Z,56.47
2019-01-24T07:22:42.326Z,49.43
2019-01-24T07:24:48.735Z,52.50
2019-01-24T07:26:53.475Z,105.23
2019-01-24T07:38:02.098Z,96.97
2019-01-24T07:43:21.091Z,54.33
2019-01-24T08:05:15.302Z,1739.07
2019-01-24T08:17:56.882Z,1171.50
2019-01-24T08:30:35.294Z,704.20
2019-01-24T08:32:39.699Z,486.20
2019-01-24T08:34:45.434Z,332.27
2019-01-24T08:36:55.089Z,214.43
2019-01-24T08:39:04.695Z,1048.37
2019-01-24T08:41:14.228Z,960.60
2019-01-24T08:43:18.476Z,1201.07
2019-01-24T08:45:22.740Z,1700.07
2019-01-24T08:47:27.316Z,1999.90
2019-01-24T08:49:32.252Z,1801.57
2019-01-24T08:51:36.914Z,1592.77
2019-01-24T08:53:41.214Z,1274.97
2019-01-24T08:55:59.156Z,1999.90
2019-01-24T08:58:11.013Z,1621.13
2019-01-24T09:00:18.002Z,1999.90
2019-01-24T09:02:22.395Z,1999.90
2019-01-24T09:04:28.596Z,1999.90
2019-01-24T09:06:33.347Z,1999.90
2019-01-24T09:08:40.676Z,1999.90
2019-01-24T09:10:48.177Z,1999.90
2019-01-24T09:12:58.183Z,1999.90
2019-01-24T09:15:11.809Z,1999.90
2019-01-24T09:17:17.428Z,1999.90
2019-01-24T09:19:22.942Z,1999.90
2019-01-24T09:21:29.638Z,1999.90
2019-01-24T09:23:34.260Z,1999.90
2019-01-24T09:25:39.115Z,1999.90
2019-01-24T09:27:43.402Z,1987.03
2019-01-24T09:29:49.518Z,1595.57
2019-01-24T09:31:54.135Z,1246.07
2019-01-24T09:34:00.862Z,1048.60
2019-01-24T09:36:07.356Z,1021.67
2019-01-24T09:38:22.048Z,1411.10
2019-01-24T09:40:27.037Z,1168.83
2019-01-24T09:42:31.329Z,1287.17
2019-01-24T09:44:35.812Z,768.23
2019-01-24T09:46:40.320Z,1784.60
2019-01-24T09:48:44.921Z,1359.57
2019-01-24T09:50:49.610Z,908.47
2019-01-24T09:52:53.883Z,1368.47
2019-01-24T09:54:58.513Z,1430.97
2019-01-24T10:03:00.762Z,1363.97
2019-01-24T10:15:03.176Z,1090.73
2019-01-24T10:36:23.695Z,1290.33
2019-01-24T10:38:28.348Z,1217.17
2019-01-24T11:17:22.121Z,525.40
2019-01-24T11:22:32.746Z,467.67
2019-01-24T11:27:05.682Z,157.30
2019-01-24T11:29:09.948Z,104.53
2019-01-24T11:31:16.662Z,111.03
2019-01-24T12:14:27.352Z,507.57
2019-01-24T14:18:24.493Z,1112.23
2019-01-24T14:20:28.801Z,857.63
2019-01-24T14:22:34.095Z,728.40
2019-01-24T14:24:38.296Z,523.63
